Wichita Falls, Texas
Current Conditions -  °F | °C
As of 7:15 AM on Thursday 30 Oct 2014 (Local Time) from KCWC Reporting Station
Clear Clear  
Wind Chill: 51°   Ceiling: Unl
Heat Index: 51°   Visibility: 10mi
Dew Point: 42°   Wind: 3mph
Humidity: 74%   Direction: 160°SSE
Pressure: 30.12"   Gusts: NA
Location:  33.91°N, 98.5°W
Report Text: KCWC 301215Z AUTO 16003KT 10SM CLR 10/06 A3012 RMK AO2 T01030058
Loading
Personal Weather Stations






























Interactive Weather Map
Tropical Storm Tracking
New forecast layout! Learn more

10-Day Weather Forecast

Advertisements
Track Severe Weather on mobile